16°C Temp
6°C Dewpoint
52% Humidity
Temperature
14 KM/H
9 MPH
8 KTS
360°
Due North

Wind Speed
Clear
Conditions
Pressure 1027.92 (hPa) - 30.35 (in)
Visibility 6.2 (mi) - 10.0 (km)

Current Conditions
EKCH
Location 55(km)
Metar :EKCH 010650Z AUTO 36008KT 9999 NCD 16/06 Q1028 NOSIG
Mon 1st June 08:50 am

Airport
  Metar Aviation API Data Provided by https://www.checkwx.com/ PHP scripts by weather34.com ©2020